Time,TemperatureF,DewpointF,PressureIn,WindDirection,WindDirectionDegrees,WindSpeedMPH,WindSpeedGustMPH,Humidity,HourlyPrecipIn,Conditions,Clouds,dailyrainin,SoftwareType,DateUTC
2013-07-31 00:02:00,67.8,64.1,30.16,South,180,0.0,0.0,88,0.00,,,0.00,WUHU21623XXSP,2013-07-31 04:02:00,
2013-07-31 00:07:00,67.8,64.1,30.16,SSW,202,0.0,0.0,88,0.00,,,0.00,WUHU21623XXSP,2013-07-31 04:07:00,
2013-07-31 00:12:00,67.6,63.9,30.16,SSW,202,0.0,0.0,88,0.00,,,0.00,WUHU21623XXSP,2013-07-31 04:12:00,
2013-07-31 00:17:00,67.6,63.9,30.16,ESE,112,0.0,0.0,88,0.00,,,0.00,WUHU21623XXSP,2013-07-31 04:17:00,
2013-07-31 00:22:00,67.6,63.9,30.17,ESE,112,0.0,0.0,88,0.00,,,0.00,WUHU21623XXSP,2013-07-31 04:22:00,
2013-07-31 00:27:00,67.6,63.9,30.17,East,90,0.0,0.0,88,0.00,,,0.00,WUHU21623XXSP,2013-07-31 04:27:00,
2013-07-31 00:32:00,67.6,63.9,30.16,East,90,0.0,0.0,88,0.00,,,0.00,WUHU21623XXSP,2013-07-31 04:32:00,
2013-07-31 00:37:00,67.6,63.9,30.16,ESE,112,0.0,0.0,88,0.00,,,0.00,WUHU21623XXSP,2013-07-31 04:37:00,
2013-07-31 00:42:00,67.6,63.9,30.16,NNE,22,0.0,0.0,88,0.00,,,0.00,WUHU21623XXSP,2013-07-31 04:42:00,
2013-07-31 00:47:00,67.6,63.9,30.17,West,270,0.0,0.0,88,0.00,,,0.00,WUHU21623XXSP,2013-07-31 04:47:00,
2013-07-31 00:52:00,67.5,63.8,30.17,WNW,292,0.0,0.0,88,0.00,,,0.00,WUHU21623XXSP,2013-07-31 04:52:00,
2013-07-31 00:57:00,67.5,63.8,30.17,WNW,292,0.0,0.0,88,0.00,,,0.00,WUHU21623XXSP,2013-07-31 04:57:00,
2013-07-31 01:02:00,67.6,63.9,30.17,North,0,0.0,0.0,88,0.00,,,0.00,WUHU21623XXSP,2013-07-31 05:02:00,
2013-07-31 01:07:00,67.6,63.9,30.17,ESE,112,0.0,0.0,88,0.00,,,0.00,WUHU21623XXSP,2013-07-31 05:07:00,
2013-07-31 01:12:00,67.8,64.1,30.16,NNE,22,0.0,0.0,88,0.00,,,0.00,WUHU21623XXSP,2013-07-31 05:12:00,
2013-07-31 01:17:00,67.8,64.1,30.16,NNE,22,0.0,0.0,88,0.00,,,0.00,WUHU21623XXSP,2013-07-31 05:17:00,
2013-07-31 01:23:00,68.2,64.5,30.16,West,270,0.0,0.0,88,0.00,,,0.00,WUHU21623XXSP,2013-07-31 05:23:00,
2013-07-31 01:28:00,68.2,64.5,30.16,WNW,292,0.0,0.0,88,0.00,,,0.00,WUHU21623XXSP,2013-07-31 05:28:00,
2013-07-31 01:33:00,68.2,64.5,30.16,NNE,22,0.0,0.0,88,0.00,,,0.00,WUHU21623XXSP,2013-07-31 05:33:00,
2013-07-31 01:38:00,68.2,64.5,30.16,East,90,0.0,0.0,88,0.00,,,0.00,WUHU21623XXSP,2013-07-31 05:38:00,
2013-07-31 01:43:00,68.2,64.5,30.16,SSW,202,0.0,0.0,88,0.00,,,0.00,WUHU21623XXSP,2013-07-31 05:43:00,
2013-07-31 01:48:00,68.0,64.3,30.16,ESE,112,0.0,0.0,88,0.00,,,0.00,WUHU21623XXSP,2013-07-31 05:48:00,
2013-07-31 01:53:00,68.2,64.5,30.16,North,0,0.0,0.0,88,0.00,,,0.00,WUHU21623XXSP,2013-07-31 05:53:00,
2013-07-31 01:58:00,68.2,64.5,30.16,North,0,0.0,0.0,88,0.00,,,0.00,WUHU21623XXSP,2013-07-31 05:58:00,
2013-07-31 02:03:00,68.0,64.3,30.15,NNE,22,0.0,0.0,88,0.00,,,0.00,WUHU21623XXSP,2013-07-31 06:03:00,
2013-07-31 02:08:00,67.8,64.1,30.16,North,0,0.0,0.0,88,0.00,,,0.00,WUHU21623XXSP,2013-07-31 06:08:00,
2013-07-31 02:13:00,67.8,64.1,30.15,East,90,0.0,0.0,88,0.00,,,0.00,WUHU21623XXSP,2013-07-31 06:13:00,
2013-07-31 02:18:00,67.8,63.8,30.15,NNE,22,0.0,0.0,87,0.00,,,0.00,WUHU21623XXSP,2013-07-31 06:18:00,
2013-07-31 02:23:00,67.8,63.8,30.15,North,0,0.0,0.0,87,0.00,,,0.00,WUHU21623XXSP,2013-07-31 06:23:00,
2013-07-31 02:28:00,67.8,63.8,30.15,ESE,112,0.0,0.0,87,0.00,,,0.00,WUHU21623XXSP,2013-07-31 06:28:00,
2013-07-31 02:33:00,67.8,63.8,30.15,ESE,112,0.0,0.0,87,0.00,,,0.00,WUHU21623XXSP,2013-07-31 06:33:00,
2013-07-31 02:38:00,67.8,63.8,30.14,East,90,0.0,0.0,87,0.00,,,0.00,WUHU21623XXSP,2013-07-31 06:38:00,
2013-07-31 02:43:00,67.8,63.8,30.14,NNE,22,0.0,0.0,87,0.00,,,0.00,WUHU21623XXSP,2013-07-31 06:43:00,
2013-07-31 02:48:00,67.6,63.6,30.15,West,270,0.0,0.0,87,0.00,,,0.00,WUHU21623XXSP,2013-07-31 06:48:00,
2013-07-31 02:53:00,67.6,63.6,30.16,West,270,0.0,0.0,87,0.00,,,0.00,WUHU21623XXSP,2013-07-31 06:53:00,
2013-07-31 02:58:00,67.5,63.8,30.16,West,270,0.0,0.0,88,0.00,,,0.00,WUHU21623XXSP,2013-07-31 06:58:00,
2013-07-31 03:03:00,67.3,63.6,30.16,WNW,292,0.0,0.0,88,0.00,,,0.00,WUHU21623XXSP,2013-07-31 07:03:00,
2013-07-31 03:08:00,67.3,63.6,30.16,North,0,0.0,0.0,88,0.00,,,0.00,WUHU21623XXSP,2013-07-31 07:08:00,
2013-07-31 03:13:00,67.3,63.6,30.17,WNW,292,0.0,0.0,88,0.00,,,0.00,WUHU21623XXSP,2013-07-31 07:13:00,
2013-07-31 03:18:00,67.3,63.6,30.18,WNW,292,0.0,0.0,88,0.00,,,0.00,WUHU21623XXSP,2013-07-31 07:18:00,
2013-07-31 03:23:00,66.9,62.9,30.17,North,0,0.0,0.0,87,0.00,,,0.00,WUHU21623XXSP,2013-07-31 07:23:00,
2013-07-31 03:28:00,66.7,62.7,30.17,NNE,22,0.0,0.0,87,0.00,,,0.00,WUHU21623XXSP,2013-07-31 07:28:00,
2013-07-31 03:34:00,66.6,62.5,30.16,NNE,22,0.0,0.0,87,0.00,,,0.00,WUHU21623XXSP,2013-07-31 07:34:00,
2013-07-31 03:39:00,66.0,62.0,30.16,North,0,0.0,0.0,87,0.00,,,0.00,WUHU21623XXSP,2013-07-31 07:39:00,
2013-07-31 03:44:00,66.0,62.0,30.16,WNW,292,0.0,0.0,87,0.00,,,0.00,WUHU21623XXSP,2013-07-31 07:44:00,
2013-07-31 03:49:00,65.8,61.8,30.16,WNW,292,0.0,0.0,87,0.00,,,0.00,WUHU21623XXSP,2013-07-31 07:49:00,
2013-07-31 03:54:00,65.5,61.8,30.16,West,270,0.0,0.0,88,0.00,,,0.00,WUHU21623XXSP,2013-07-31 07:54:00,
2013-07-31 03:59:00,65.5,61.8,30.16,East,90,0.0,0.0,88,0.00,,,0.00,WUHU21623XXSP,2013-07-31 07:59:00,
2013-07-31 04:04:00,65.3,61.7,30.15,SSW,202,0.0,0.0,88,0.00,,,0.00,WUHU21623XXSP,2013-07-31 08:04:00,
2013-07-31 04:09:00,65.1,61.5,30.15,West,270,0.0,0.0,88,0.00,,,0.00,WUHU21623XXSP,2013-07-31 08:09:00,
2013-07-31 04:14:00,64.9,61.3,30.15,SSW,202,0.0,0.0,88,0.00,,,0.00,WUHU21623XXSP,2013-07-31 08:14:00,
2013-07-31 04:19:00,64.8,61.2,30.15,East,90,0.0,0.0,88,0.00,,,0.00,WUHU21623XXSP,2013-07-31 08:19:00,
2013-07-31 04:24:00,64.8,61.2,30.14,SSW,202,0.0,0.0,88,0.00,,,0.00,WUHU21623XXSP,2013-07-31 08:24:00,
2013-07-31 04:29:00,64.8,61.2,30.14,East,90,0.0,0.0,88,0.00,,,0.00,WUHU21623XXSP,2013-07-31 08:29:00,
2013-07-31 04:34:00,64.8,61.2,30.15,East,90,0.0,0.0,88,0.00,,,0.00,WUHU21623XXSP,2013-07-31 08:34:00,
2013-07-31 04:39:00,64.8,61.2,30.15,West,270,0.0,0.0,88,0.03,,,0.03,WUHU21623XXSP,2013-07-31 08:39:00,
2013-07-31 04:44:00,64.8,61.2,30.15,West,270,0.0,0.0,88,0.03,,,0.03,WUHU21623XXSP,2013-07-31 08:44:00,
2013-07-31 04:49:00,64.8,61.2,30.15,ESE,112,0.0,0.0,88,0.03,,,0.03,WUHU21623XXSP,2013-07-31 08:49:00,
2013-07-31 04:54:00,64.8,61.2,30.15,NNE,22,0.0,0.0,88,0.03,,,0.03,WUHU21623XXSP,2013-07-31 08:54:00,
2013-07-31 04:59:00,64.8,61.2,30.15,West,270,0.0,0.0,88,0.03,,,0.03,WUHU21623XXSP,2013-07-31 08:59:00,
2013-07-31 05:04:00,64.6,61.0,30.15,West,270,0.0,0.0,88,0.03,,,0.03,WUHU21623XXSP,2013-07-31 09:04:00,
2013-07-31 05:09:00,64.6,61.0,30.16,ESE,112,0.0,0.0,88,0.03,,,0.03,WUHU21623XXSP,2013-07-31 09:09:00,
2013-07-31 05:14:00,64.6,61.0,30.16,West,270,0.0,0.0,88,0.03,,,0.03,WUHU21623XXSP,2013-07-31 09:14:00,
2013-07-31 05:19:00,64.6,61.0,30.17,West,270,0.0,0.0,88,0.03,,,0.03,WUHU21623XXSP,2013-07-31 09:19:00,
2013-07-31 05:24:00,64.6,61.0,30.17,ESE,112,0.0,0.0,88,0.03,,,0.03,WUHU21623XXSP,2013-07-31 09:24:00,
2013-07-31 05:29:00,64.6,61.0,30.17,ESE,112,0.0,0.0,88,0.03,,,0.03,WUHU21623XXSP,2013-07-31 09:29:00,
2013-07-31 05:34:00,64.4,60.8,30.17,East,90,0.0,0.0,88,0.03,,,0.03,WUHU21623XXSP,2013-07-31 09:34:00,
2013-07-31 05:39:00,64.2,60.7,30.16,East,90,0.0,0.0,88,0.03,,,0.05,WUHU21623XXSP,2013-07-31 09:39:00,
2013-07-31 05:44:00,64.2,60.7,30.16,ESE,112,0.0,0.0,88,0.03,,,0.05,WUHU21623XXSP,2013-07-31 09:44:00,
2013-07-31 05:49:00,64.2,60.7,30.16,SSW,202,0.0,0.0,88,0.03,,,0.05,WUHU21623XXSP,2013-07-31 09:49:00,
2013-07-31 05:54:00,64.2,60.7,30.16,ESE,112,0.0,0.0,88,0.03,,,0.05,WUHU21623XXSP,2013-07-31 09:54:00,
2013-07-31 05:59:00,64.0,60.5,30.15,East,90,0.0,0.0,88,0.03,,,0.05,WUHU21623XXSP,2013-07-31 09:59:00,
2013-07-31 06:04:00,64.0,60.5,30.15,East,90,0.0,0.0,88,0.03,,,0.05,WUHU21623XXSP,2013-07-31 10:04:00,
2013-07-31 06:09:00,64.0,60.5,30.15,East,90,0.0,0.0,88,0.03,,,0.05,WUHU21623XXSP,2013-07-31 10:09:00,
2013-07-31 06:14:00,63.9,60.3,30.15,East,90,0.0,0.0,88,0.03,,,0.05,WUHU21623XXSP,2013-07-31 10:14:00,
2013-07-31 06:20:00,63.9,60.3,30.15,ESE,112,0.0,0.0,88,0.03,,,0.05,WUHU21623XXSP,2013-07-31 10:20:00,
2013-07-31 06:25:00,63.9,60.3,30.15,NNE,22,0.0,0.0,88,0.03,,,0.05,WUHU21623XXSP,2013-07-31 10:25:00,
2013-07-31 06:30:00,63.7,60.1,30.16,ESE,112,0.0,0.0,88,0.03,,,0.05,WUHU21623XXSP,2013-07-31 10:30:00,
2013-07-31 06:35:00,63.7,60.1,30.15,East,90,0.0,0.0,88,0.03,,,0.05,WUHU21623XXSP,2013-07-31 10:35:00,
2013-07-31 06:40:00,63.7,60.1,30.16,East,90,0.0,0.0,88,0.00,,,0.05,WUHU21623XXSP,2013-07-31 10:40:00,
2013-07-31 06:45:00,63.7,60.1,30.15,NNE,22,0.0,0.0,88,0.00,,,0.05,WUHU21623XXSP,2013-07-31 10:45:00,
2013-07-31 06:50:00,63.7,60.1,30.15,East,90,0.0,0.0,88,0.00,,,0.05,WUHU21623XXSP,2013-07-31 10:50:00,
2013-07-31 06:55:00,63.7,60.1,30.15,ESE,112,0.0,0.0,88,0.00,,,0.05,WUHU21623XXSP,2013-07-31 10:55:00,
2013-07-31 07:00:00,63.7,60.1,30.16,NNE,22,0.0,0.0,88,0.00,,,0.05,WUHU21623XXSP,2013-07-31 11:00:00,
2013-07-31 07:05:00,63.7,60.1,30.15,East,90,0.0,0.0,88,0.00,,,0.05,WUHU21623XXSP,2013-07-31 11:05:00,
2013-07-31 07:10:00,63.9,60.3,30.16,North,0,0.0,0.0,88,0.00,,,0.05,WUHU21623XXSP,2013-07-31 11:10:00,
2013-07-31 07:15:00,63.7,60.1,30.15,NNE,22,0.0,0.0,88,0.00,,,0.05,WUHU21623XXSP,2013-07-31 11:15:00,
2013-07-31 07:20:00,63.9,60.3,30.15,North,0,0.0,0.0,88,0.00,,,0.05,WUHU21623XXSP,2013-07-31 11:20:00,
2013-07-31 07:25:00,63.9,60.3,30.15,West,270,0.0,0.0,88,0.00,,,0.05,WUHU21623XXSP,2013-07-31 11:25:00,
2013-07-31 07:30:00,63.7,60.1,30.15,WNW,292,0.0,0.0,88,0.00,,,0.05,WUHU21623XXSP,2013-07-31 11:30:00,
2013-07-31 07:35:00,63.7,60.1,30.15,WNW,292,0.0,0.0,88,0.00,,,0.05,WUHU21623XXSP,2013-07-31 11:35:00,
2013-07-31 07:40:00,63.7,60.1,30.15,NNE,22,0.0,0.0,88,0.00,,,0.05,WUHU21623XXSP,2013-07-31 11:40:00,
2013-07-31 07:45:00,63.7,60.1,30.15,North,0,0.0,0.0,88,0.00,,,0.05,WUHU21623XXSP,2013-07-31 11:45:00,
2013-07-31 07:50:00,63.7,60.1,30.15,West,270,0.0,0.0,88,0.00,,,0.05,WUHU21623XXSP,2013-07-31 11:50:00,
2013-07-31 07:55:00,63.7,60.1,30.15,West,270,0.0,0.0,88,0.00,,,0.05,WUHU21623XXSP,2013-07-31 11:55:00,
2013-07-31 08:00:00,63.7,60.1,30.15,West,270,0.0,0.0,88,0.00,,,0.05,WUHU21623XXSP,2013-07-31 12:00:00,
2013-07-31 08:05:00,63.7,60.1,30.15,NNE,22,0.0,0.0,88,0.00,,,0.05,WUHU21623XXSP,2013-07-31 12:05:00,
2013-07-31 08:10:00,63.9,60.3,30.16,West,270,0.0,0.0,88,0.00,,,0.05,WUHU21623XXSP,2013-07-31 12:10:00,
2013-07-31 08:15:00,64.0,60.5,30.16,SSW,202,0.0,0.0,88,0.00,,,0.05,WUHU21623XXSP,2013-07-31 12:15:00,
2013-07-31 08:20:00,64.0,60.5,30.16,SSW,202,0.0,0.0,88,0.00,,,0.05,WUHU21623XXSP,2013-07-31 12:20:00,
2013-07-31 08:25:00,64.2,60.7,30.16,WNW,292,0.0,0.0,88,0.00,,,0.05,WUHU21623XXSP,2013-07-31 12:25:00,
2013-07-31 08:30:00,64.2,60.7,30.17,WNW,292,0.0,0.0,88,0.00,,,0.05,WUHU21623XXSP,2013-07-31 12:30:00,
2013-07-31 08:35:00,64.4,60.8,30.17,East,90,0.0,0.0,88,0.00,,,0.05,WUHU21623XXSP,2013-07-31 12:35:00,
2013-07-31 08:40:00,64.6,61.0,30.17,SSW,202,0.0,0.0,88,0.00,,,0.05,WUHU21623XXSP,2013-07-31 12:40:00,
2013-07-31 08:45:00,64.6,61.0,30.17,ESE,112,0.0,0.0,88,0.00,,,0.05,WUHU21623XXSP,2013-07-31 12:45:00,
2013-07-31 08:50:00,64.8,61.2,30.16,East,90,0.0,0.0,88,0.00,,,0.05,WUHU21623XXSP,2013-07-31 12:50:00,
2013-07-31 08:55:00,64.9,61.3,30.15,ESE,112,0.0,0.0,88,0.00,,,0.05,WUHU21623XXSP,2013-07-31 12:55:00,
2013-07-31 09:01:00,64.9,61.3,30.15,NNE,22,0.0,0.0,88,0.00,,,0.05,WUHU21623XXSP,2013-07-31 13:01:00,
2013-07-31 09:06:00,64.9,61.3,30.16,West,270,0.0,0.0,88,0.00,,,0.05,WUHU21623XXSP,2013-07-31 13:06:00,
2013-07-31 09:11:00,65.3,61.7,30.16,West,270,0.0,0.0,88,0.00,,,0.05,WUHU21623XXSP,2013-07-31 13:11:00,
2013-07-31 09:16:00,65.3,61.7,30.16,WNW,292,0.0,0.0,88,0.00,,,0.05,WUHU21623XXSP,2013-07-31 13:16:00,
2013-07-31 09:21:00,65.7,62.0,30.16,WNW,292,0.0,0.0,88,0.00,,,0.05,WUHU21623XXSP,2013-07-31 13:21:00,
2013-07-31 09:26:00,66.0,62.3,30.16,North,0,0.0,0.0,88,0.00,,,0.05,WUHU21623XXSP,2013-07-31 13:26:00,
2013-07-31 09:31:00,66.0,62.3,30.16,South,180,0.0,0.0,88,0.00,,,0.05,WUHU21623XXSP,2013-07-31 13:31:00,
2013-07-31 09:36:00,66.2,62.5,30.15,North,0,0.0,0.0,88,0.00,,,0.05,WUHU21623XXSP,2013-07-31 13:36:00,
2013-07-31 09:41:00,66.7,63.0,30.15,NNE,22,0.0,0.0,88,0.00,,,0.05,WUHU21623XXSP,2013-07-31 13:41:00,
2013-07-31 09:46:00,67.6,63.9,30.15,NNE,22,0.0,0.0,88,0.00,,,0.05,WUHU21623XXSP,2013-07-31 13:46:00,
2013-07-31 09:51:00,67.8,64.1,30.15,WNW,292,0.0,0.0,88,0.00,,,0.05,WUHU21623XXSP,2013-07-31 13:51:00,
2013-07-31 09:56:00,68.2,64.5,30.15,North,0,0.0,0.0,88,0.00,,,0.05,WUHU21623XXSP,2013-07-31 13:56:00,
2013-07-31 10:01:00,68.4,64.6,30.15,WNW,292,0.0,0.0,88,0.00,,,0.05,WUHU21623XXSP,2013-07-31 14:01:00,
2013-07-31 10:07:00,68.2,64.5,30.14,North,0,0.0,0.0,88,0.00,,,0.05,WUHU21623XXSP,2013-07-31 14:07:00,
2013-07-31 10:12:00,68.2,64.5,30.14,West,270,0.0,0.0,88,0.00,,,0.05,WUHU21623XXSP,2013-07-31 14:12:00,
2013-07-31 10:18:00,68.2,64.5,30.14,SSW,202,0.0,0.0,88,0.00,,,0.05,WUHU21623XXSP,2013-07-31 14:18:00,
2013-07-31 10:23:00,68.2,64.5,30.15,West,270,0.0,0.0,88,0.00,,,0.05,WUHU21623XXSP,2013-07-31 14:23:00,
2013-07-31 10:28:00,67.8,64.1,30.15,North,0,0.0,0.0,88,0.00,,,0.05,WUHU21623XXSP,2013-07-31 14:28:00,
2013-07-31 10:33:00,68.2,64.5,30.15,WNW,292,0.0,0.0,88,0.00,,,0.05,WUHU21623XXSP,2013-07-31 14:33:00,
2013-07-31 10:39:00,68.4,64.6,30.15,West,270,0.0,0.0,88,0.00,,,0.05,WUHU21623XXSP,2013-07-31 14:39:00,
2013-07-31 10:44:00,68.4,64.6,30.15,West,270,0.0,0.0,88,0.00,,,0.05,WUHU21623XXSP,2013-07-31 14:44:00,
2013-07-31 10:49:00,68.5,64.8,30.15,West,270,0.0,0.0,88,0.00,,,0.05,WUHU21623XXSP,2013-07-31 14:49:00,
2013-07-31 10:54:00,68.2,64.5,30.15,WNW,292,0.0,0.0,88,0.00,,,0.05,WUHU21623XXSP,2013-07-31 14:54:00,
2013-07-31 10:59:00,68.4,64.6,30.14,East,90,0.0,0.0,88,0.00,,,0.05,WUHU21623XXSP,2013-07-31 14:59:00,
2013-07-31 11:04:00,68.4,64.6,30.13,SSW,202,0.0,0.0,88,0.00,,,0.05,WUHU21623XXSP,2013-07-31 15:04:00,
2013-07-31 11:09:00,68.4,64.6,30.13,SSW,202,0.0,0.0,88,0.00,,,0.05,WUHU21623XXSP,2013-07-31 15:09:00,
2013-07-31 11:14:00,68.5,64.8,30.13,South,180,0.0,0.0,88,0.00,,,0.05,WUHU21623XXSP,2013-07-31 15:14:00,
2013-07-31 11:19:00,68.4,64.6,30.13,WNW,292,0.0,0.0,88,0.00,,,0.05,WUHU21623XXSP,2013-07-31 15:19:00,
2013-07-31 11:24:00,68.5,64.8,30.13,WNW,292,0.0,0.0,88,0.00,,,0.05,WUHU21623XXSP,2013-07-31 15:24:00,
2013-07-31 11:29:00,68.7,65.0,30.13,West,270,0.0,0.0,88,0.00,,,0.05,WUHU21623XXSP,2013-07-31 15:29:00,
2013-07-31 11:34:00,68.9,65.2,30.13,NNE,22,0.0,0.0,88,0.00,,,0.05,WUHU21623XXSP,2013-07-31 15:34:00,
2013-07-31 11:39:00,69.1,65.3,30.12,NNE,22,0.0,0.0,88,0.00,,,0.05,WUHU21623XXSP,2013-07-31 15:39:00,
2013-07-31 11:44:00,69.3,65.5,30.13,West,270,0.0,0.0,88,0.00,,,0.05,WUHU21623XXSP,2013-07-31 15:44:00,
2013-07-31 11:49:00,69.6,65.9,30.13,North,0,0.0,0.0,88,0.00,,,0.05,WUHU21623XXSP,2013-07-31 15:49:00,
2013-07-31 11:54:00,69.8,66.1,30.13,WNW,292,0.0,0.0,88,0.00,,,0.05,WUHU21623XXSP,2013-07-31 15:54:00,
2013-07-31 11:59:00,69.8,66.1,30.12,WNW,292,0.0,0.0,88,0.00,,,0.05,WUHU21623XXSP,2013-07-31 15:59:00,
2013-07-31 12:04:00,70.0,66.2,30.12,West,270,0.0,0.0,88,0.00,,,0.05,WUHU21623XXSP,2013-07-31 16:04:00,
2013-07-31 12:09:00,70.0,66.2,30.12,WNW,292,0.0,0.0,88,0.00,,,0.05,WUHU21623XXSP,2013-07-31 16:09:00,
2013-07-31 12:14:00,70.0,66.2,30.12,North,0,0.0,0.0,88,0.00,,,0.05,WUHU21623XXSP,2013-07-31 16:14:00,
2013-07-31 12:19:00,70.2,66.4,30.12,WNW,292,0.0,0.0,88,0.00,,,0.05,WUHU21623XXSP,2013-07-31 16:19:00,
2013-07-31 12:24:00,70.3,66.6,30.12,North,0,0.0,0.0,88,0.00,,,0.05,WUHU21623XXSP,2013-07-31 16:24:00,
2013-07-31 12:29:00,70.5,66.8,30.12,South,180,0.0,0.0,88,0.00,,,0.05,WUHU21623XXSP,2013-07-31 16:29:00,
2013-07-31 12:34:00,71.4,67.3,30.12,SSW,202,0.0,0.0,87,0.00,,,0.05,WUHU21623XXSP,2013-07-31 16:34:00,
2013-07-31 12:39:00,71.6,67.5,30.11,SSW,202,0.0,0.0,87,0.00,,,0.05,WUHU21623XXSP,2013-07-31 16:39:00,
2013-07-31 12:44:00,71.8,67.7,30.12,SSW,202,0.0,0.0,87,0.00,,,0.05,WUHU21623XXSP,2013-07-31 16:44:00,
2013-07-31 12:49:00,71.4,67.3,30.12,SSW,202,0.0,0.0,87,0.00,,,0.05,WUHU21623XXSP,2013-07-31 16:49:00,
2013-07-31 12:55:00,71.4,67.3,30.11,WNW,292,0.0,0.0,87,0.00,,,0.05,WUHU21623XXSP,2013-07-31 16:55:00,
2013-07-31 13:00:00,71.6,67.5,30.12,North,0,0.0,0.0,87,0.00,,,0.05,WUHU21623XXSP,2013-07-31 17:00:00,
2013-07-31 13:05:00,71.4,67.3,30.11,South,180,0.0,0.0,87,0.00,,,0.05,WUHU21623XXSP,2013-07-31 17:05:00,
2013-07-31 13:10:00,71.4,67.3,30.11,WNW,292,0.0,0.0,87,0.00,,,0.05,WUHU21623XXSP,2013-07-31 17:10:00,
2013-07-31 13:15:00,71.8,67.7,30.11,South,180,0.0,0.0,87,0.00,,,0.05,WUHU21623XXSP,2013-07-31 17:15:00,
2013-07-31 13:20:00,71.8,67.7,30.11,South,180,0.0,0.0,87,0.00,,,0.05,WUHU21623XXSP,2013-07-31 17:20:00,
2013-07-31 13:25:00,72.0,67.5,30.11,West,270,0.0,0.0,86,0.00,,,0.05,WUHU21623XXSP,2013-07-31 17:25:00,
2013-07-31 13:30:00,72.3,67.9,30.11,South,180,0.0,0.0,86,0.00,,,0.05,WUHU21623XXSP,2013-07-31 17:30:00,
2013-07-31 13:35:00,72.5,68.1,30.11,North,0,0.0,0.0,86,0.00,,,0.05,WUHU21623XXSP,2013-07-31 17:35:00,
2013-07-31 13:40:00,72.1,67.7,30.10,SSW,202,0.0,0.0,86,0.00,,,0.05,WUHU21623XXSP,2013-07-31 17:40:00,
2013-07-31 13:45:00,71.8,67.4,30.11,SSW,202,0.0,0.0,86,0.00,,,0.05,WUHU21623XXSP,2013-07-31 17:45:00,
2013-07-31 13:50:00,71.4,67.0,30.10,SSW,202,0.0,0.0,86,0.00,,,0.05,WUHU21623XXSP,2013-07-31 17:50:00,
2013-07-31 13:55:00,71.4,67.0,30.10,West,270,0.0,0.0,86,0.00,,,0.05,WUHU21623XXSP,2013-07-31 17:55:00,
2013-07-31 14:00:00,71.2,67.2,30.10,SSW,202,0.0,0.0,87,0.00,,,0.05,WUHU21623XXSP,2013-07-31 18:00:00,
2013-07-31 14:05:00,71.2,67.2,30.10,West,270,0.0,0.0,87,0.00,,,0.05,WUHU21623XXSP,2013-07-31 18:05:00,
2013-07-31 14:10:00,71.2,67.2,30.09,West,270,0.0,0.0,87,0.00,,,0.05,WUHU21623XXSP,2013-07-31 18:10:00,
2013-07-31 14:15:00,71.2,67.2,30.09,SSW,202,0.0,0.0,87,0.00,,,0.05,WUHU21623XXSP,2013-07-31 18:15:00,
2013-07-31 14:20:00,71.1,67.0,30.09,West,270,0.0,0.0,87,0.00,,,0.05,WUHU21623XXSP,2013-07-31 18:20:00,
2013-07-31 14:25:00,71.1,67.0,30.09,West,270,0.0,0.0,87,0.00,,,0.05,WUHU21623XXSP,2013-07-31 18:25:00,
2013-07-31 14:30:00,71.2,67.2,30.09,SSW,202,0.0,0.0,87,0.00,,,0.05,WUHU21623XXSP,2013-07-31 18:30:00,
2013-07-31 14:35:00,71.2,67.2,30.09,NNE,22,0.0,0.0,87,0.00,,,0.05,WUHU21623XXSP,2013-07-31 18:35:00,
2013-07-31 14:40:00,71.6,67.5,30.09,SSW,202,0.0,0.0,87,0.00,,,0.05,WUHU21623XXSP,2013-07-31 18:40:00,
2013-07-31 14:45:00,71.6,67.5,30.08,West,270,0.0,0.0,87,0.00,,,0.05,WUHU21623XXSP,2013-07-31 18:45:00,
2013-07-31 14:50:00,71.8,67.7,30.08,East,90,0.0,0.0,87,0.00,,,0.05,WUHU21623XXSP,2013-07-31 18:50:00,
2013-07-31 14:55:00,71.8,67.7,30.07,SSW,202,0.0,0.0,87,0.00,,,0.05,WUHU21623XXSP,2013-07-31 18:55:00,
2013-07-31 15:00:00,72.1,68.1,30.07,North,0,0.0,0.0,87,0.00,,,0.05,WUHU21623XXSP,2013-07-31 19:00:00,
2013-07-31 15:05:00,72.7,68.3,30.06,SSW,202,0.0,0.0,86,0.00,,,0.05,WUHU21623XXSP,2013-07-31 19:05:00,
2013-07-31 15:10:00,74.5,70.1,30.06,North,0,0.0,0.0,86,0.00,,,0.05,WUHU21623XXSP,2013-07-31 19:10:00,
2013-07-31 15:15:00,74.3,69.2,30.06,South,180,2.6,6.5,84,0.00,,,0.05,WUHU21623XXSP,2013-07-31 19:15:00,
2013-07-31 15:20:00,74.3,69.2,30.06,ESE,112,4.9,6.5,84,0.00,,,0.05,WUHU21623XXSP,2013-07-31 19:20:00,
2013-07-31 15:25:00,73.8,68.6,30.06,SSW,202,2.1,5.7,84,0.00,,,0.05,WUHU21623XXSP,2013-07-31 19:25:00,
2013-07-31 15:30:00,73.2,68.1,30.06,SSW,202,1.2,5.7,84,0.00,,,0.05,WUHU21623XXSP,2013-07-31 19:30:00,
2013-07-31 15:36:00,73.0,68.3,30.05,North,0,0.0,2.4,85,0.00,,,0.05,WUHU21623XXSP,2013-07-31 19:36:00,
2013-07-31 15:41:00,73.8,69.0,30.05,East,90,2.6,3.0,85,0.00,,,0.05,WUHU21623XXSP,2013-07-31 19:41:00,
2013-07-31 15:46:00,73.9,68.8,30.05,NNE,22,0.0,3.0,84,0.00,,,0.05,WUHU21623XXSP,2013-07-31 19:46:00,
2013-07-31 15:51:00,74.1,69.0,30.05,East,90,1.7,3.0,84,0.00,,,0.05,WUHU21623XXSP,2013-07-31 19:51:00,
2013-07-31 15:56:00,73.8,68.6,30.05,NNE,22,1.7,2.7,84,0.00,,,0.05,WUHU21623XXSP,2013-07-31 19:56:00,
2013-07-31 16:01:00,73.6,68.5,30.05,SSW,202,2.6,3.0,84,0.00,,,0.05,WUHU21623XXSP,2013-07-31 20:01:00,
2013-07-31 16:06:00,73.8,69.0,30.04,WNW,292,2.1,3.0,85,0.00,,,0.05,WUHU21623XXSP,2013-07-31 20:06:00,
2013-07-31 16:11:00,74.1,69.3,30.04,WNW,292,0.0,3.0,85,0.00,,,0.05,WUHU21623XXSP,2013-07-31 20:11:00,
2013-07-31 16:16:00,74.3,69.5,30.04,East,90,0.0,2.4,85,0.00,,,0.05,WUHU21623XXSP,2013-07-31 20:16:00,
2013-07-31 16:21:00,74.7,69.5,30.04,ESE,112,0.0,0.0,84,0.00,,,0.05,WUHU21623XXSP,2013-07-31 20:21:00,
2013-07-31 16:26:00,74.5,69.4,30.04,ESE,112,0.0,1.9,84,0.00,,,0.05,WUHU21623XXSP,2013-07-31 20:26:00,
2013-07-31 16:31:00,74.1,69.0,30.04,WNW,292,0.0,1.9,84,0.00,,,0.05,WUHU21623XXSP,2013-07-31 20:31:00,
2013-07-31 16:36:00,74.1,69.3,30.04,South,180,0.0,1.7,85,0.00,,,0.05,WUHU21623XXSP,2013-07-31 20:36:00,
2013-07-31 16:41:00,74.1,69.3,30.04,East,90,0.0,0.0,85,0.00,,,0.05,WUHU21623XXSP,2013-07-31 20:41:00,
2013-07-31 16:46:00,74.1,69.3,30.04,West,270,0.0,0.0,85,0.00,,,0.05,WUHU21623XXSP,2013-07-31 20:46:00,
2013-07-31 16:51:00,74.1,69.3,30.04,ESE,112,0.0,2.4,85,0.00,,,0.05,WUHU21623XXSP,2013-07-31 20:51:00,
2013-07-31 16:57:00,74.1,69.3,30.04,WNW,292,0.0,2.4,85,0.00,,,0.05,WUHU21623XXSP,2013-07-31 20:57:00,
2013-07-31 17:02:00,74.8,70.1,30.03,South,180,0.0,1.9,85,0.00,,,0.05,WUHU21623XXSP,2013-07-31 21:02:00,
2013-07-31 17:07:00,74.8,70.1,30.03,WNW,292,0.0,0.0,85,0.00,,,0.05,WUHU21623XXSP,2013-07-31 21:07:00,
2013-07-31 17:12:00,74.8,70.1,30.02,NNE,22,0.0,0.0,85,0.00,,,0.05,WUHU21623XXSP,2013-07-31 21:12:00,
2013-07-31 17:17:00,74.8,69.7,30.02,North,0,0.0,1.9,84,0.00,,,0.05,WUHU21623XXSP,2013-07-31 21:17:00,
2013-07-31 17:22:00,74.5,69.7,30.02,ESE,112,0.0,1.9,85,0.00,,,0.05,WUHU21623XXSP,2013-07-31 21:22:00,
2013-07-31 17:27:00,74.7,69.9,30.02,West,270,0.0,0.0,85,0.00,,,0.05,WUHU21623XXSP,2013-07-31 21:27:00,
2013-07-31 17:32:00,74.8,70.1,30.02,NNE,22,0.0,0.0,85,0.00,,,0.05,WUHU21623XXSP,2013-07-31 21:32:00,
2013-07-31 17:37:00,74.8,70.1,30.02,North,0,0.0,0.0,85,0.00,,,0.05,WUHU21623XXSP,2013-07-31 21:37:00,
2013-07-31 17:42:00,75.0,70.3,30.02,East,90,0.0,0.0,85,0.00,,,0.05,WUHU21623XXSP,2013-07-31 21:42:00,
2013-07-31 17:47:00,75.4,70.3,30.02,West,270,0.0,0.0,84,0.00,,,0.05,WUHU21623XXSP,2013-07-31 21:47:00,
2013-07-31 17:52:00,75.4,70.3,30.02,WNW,292,0.0,0.0,84,0.00,,,0.05,WUHU21623XXSP,2013-07-31 21:52:00,
2013-07-31 17:57:00,75.4,70.3,30.02,East,90,0.0,0.0,84,0.00,,,0.05,WUHU21623XXSP,2013-07-31 21:57:00,
2013-07-31 18:02:00,75.6,70.8,30.01,SSW,202,0.0,0.0,85,0.00,,,0.05,WUHU21623XXSP,2013-07-31 22:02:00,
2013-07-31 18:07:00,75.6,70.4,30.01,WNW,292,0.0,0.0,84,0.00,,,0.05,WUHU21623XXSP,2013-07-31 22:07:00,
2013-07-31 18:12:00,75.7,70.6,30.01,SSW,202,0.0,0.0,84,0.00,,,0.05,WUHU21623XXSP,2013-07-31 22:12:00,
2013-07-31 18:17:00,75.6,70.4,30.01,ESE,112,0.0,0.0,84,0.00,,,0.05,WUHU21623XXSP,2013-07-31 22:17:00,
2013-07-31 18:22:00,75.6,70.4,30.00,WNW,292,0.0,0.0,84,0.00,,,0.05,WUHU21623XXSP,2013-07-31 22:22:00,
2013-07-31 18:27:00,75.2,70.1,30.01,SSW,202,0.0,0.0,84,0.00,,,0.05,WUHU21623XXSP,2013-07-31 22:27:00,
2013-07-31 18:32:00,75.0,70.3,30.01,SSW,202,0.0,0.0,85,0.00,,,0.05,WUHU21623XXSP,2013-07-31 22:32:00,
2013-07-31 18:37:00,75.0,70.3,30.00,ESE,112,0.0,0.0,85,0.00,,,0.05,WUHU21623XXSP,2013-07-31 22:37:00,
2013-07-31 18:42:00,75.0,70.3,30.00,SSW,202,0.0,0.0,85,0.00,,,0.05,WUHU21623XXSP,2013-07-31 22:42:00,
2013-07-31 18:47:00,75.0,70.3,30.00,NNE,22,0.0,0.0,85,0.00,,,0.05,WUHU21623XXSP,2013-07-31 22:47:00,
2013-07-31 18:52:00,75.0,70.3,30.00,WNW,292,0.0,0.0,85,0.00,,,0.05,WUHU21623XXSP,2013-07-31 22:52:00,
2013-07-31 18:57:00,75.0,70.3,30.00,SSW,202,0.0,0.0,85,0.00,,,0.05,WUHU21623XXSP,2013-07-31 22:57:00,
2013-07-31 19:03:00,75.0,70.6,30.00,West,270,0.0,0.0,86,0.00,,,0.05,WUHU21623XXSP,2013-07-31 23:03:00,
2013-07-31 19:08:00,75.0,70.3,30.00,SSW,202,0.0,0.0,85,0.00,,,0.05,WUHU21623XXSP,2013-07-31 23:08:00,
2013-07-31 19:13:00,74.8,70.1,30.00,SSW,202,0.0,0.0,85,0.00,,,0.05,WUHU21623XXSP,2013-07-31 23:13:00,
2013-07-31 19:18:00,74.8,70.1,30.00,ESE,112,0.0,0.0,85,0.00,,,0.05,WUHU21623XXSP,2013-07-31 23:18:00,
2013-07-31 19:23:00,74.8,70.1,30.00,WNW,292,0.0,0.0,85,0.00,,,0.05,WUHU21623XXSP,2013-07-31 23:23:00,
2013-07-31 19:28:00,74.7,69.9,30.00,South,180,0.0,0.0,85,0.00,,,0.05,WUHU21623XXSP,2013-07-31 23:28:00,
2013-07-31 19:33:00,74.7,69.9,30.00,East,90,0.0,0.0,85,0.00,,,0.05,WUHU21623XXSP,2013-07-31 23:33:00,
2013-07-31 19:38:00,74.5,69.7,30.00,SSW,202,0.0,0.0,85,0.00,,,0.05,WUHU21623XXSP,2013-07-31 23:38:00,
2013-07-31 19:43:00,74.1,69.7,30.01,North,0,0.0,0.0,86,0.00,,,0.05,WUHU21623XXSP,2013-07-31 23:43:00,
2013-07-31 19:48:00,73.9,69.5,30.02,North,0,0.0,0.0,86,0.00,,,0.05,WUHU21623XXSP,2013-07-31 23:48:00,
2013-07-31 19:53:00,73.8,69.7,30.01,North,0,0.0,0.0,87,0.00,,,0.05,WUHU21623XXSP,2013-07-31 23:53:00,
2013-07-31 19:58:00,73.8,69.7,30.01,SSW,202,0.0,0.0,87,0.00,,,0.05,WUHU21623XXSP,2013-07-31 23:58:00,
2013-07-31 20:03:00,73.6,69.5,30.01,South,180,0.0,0.0,87,0.00,,,0.05,WUHU21623XXSP,2013-08-01 00:03:00,
2013-07-31 20:08:00,73.6,69.5,30.02,SSW,202,0.0,0.0,87,0.00,,,0.05,WUHU21623XXSP,2013-08-01 00:08:00,
2013-07-31 20:13:00,73.4,69.3,30.01,ESE,112,0.0,0.0,87,0.00,,,0.05,WUHU21623XXSP,2013-08-01 00:13:00,
2013-07-31 20:18:00,73.6,69.5,30.00,ESE,112,0.0,0.0,87,0.00,,,0.05,WUHU21623XXSP,2013-08-01 00:18:00,
2013-07-31 20:23:00,73.2,69.1,30.01,South,180,0.0,0.0,87,0.00,,,0.05,WUHU21623XXSP,2013-08-01 00:23:00,
2013-07-31 20:28:00,73.2,69.1,30.01,SSW,202,0.0,0.0,87,0.00,,,0.05,WUHU21623XXSP,2013-08-01 00:28:00,
2013-07-31 20:33:00,73.2,69.1,30.01,South,180,0.0,0.0,87,0.00,,,0.05,WUHU21623XXSP,2013-08-01 00:33:00,
2013-07-31 20:38:00,73.0,69.3,30.01,South,180,0.0,0.0,88,0.00,,,0.05,WUHU21623XXSP,2013-08-01 00:38:00,
2013-07-31 20:43:00,73.0,69.3,30.01,ESE,112,0.0,0.0,88,0.00,,,0.05,WUHU21623XXSP,2013-08-01 00:43:00,
2013-07-31 20:48:00,72.9,69.1,30.01,ESE,112,0.0,0.0,88,0.00,,,0.05,WUHU21623XXSP,2013-08-01 00:48:00,
2013-07-31 20:53:00,72.7,68.9,30.00,South,180,0.0,0.0,88,0.00,,,0.05,WUHU21623XXSP,2013-08-01 00:53:00,
2013-07-31 20:58:00,72.5,68.8,30.01,WNW,292,0.0,0.0,88,0.00,,,0.05,WUHU21623XXSP,2013-08-01 00:58:00,
2013-07-31 21:03:00,72.1,68.4,30.01,East,90,0.0,0.0,88,0.00,,,0.05,WUHU21623XXSP,2013-08-01 01:03:00,
2013-07-31 21:08:00,72.1,68.1,30.01,North,0,0.0,0.0,87,0.00,,,0.05,WUHU21623XXSP,2013-08-01 01:08:00,
2013-07-31 21:13:00,71.8,67.7,30.02,North,0,0.0,0.0,87,0.00,,,0.05,WUHU21623XXSP,2013-08-01 01:13:00,
2013-07-31 21:19:00,71.6,67.5,30.01,ESE,112,0.0,0.0,87,0.00,,,0.05,WUHU21623XXSP,2013-08-01 01:19:00,
2013-07-31 21:24:00,71.4,67.7,30.02,East,90,0.0,0.0,88,0.00,,,0.05,WUHU21623XXSP,2013-08-01 01:24:00,
2013-07-31 21:29:00,71.2,67.5,30.02,East,90,0.0,0.0,88,0.00,,,0.05,WUHU21623XXSP,2013-08-01 01:29:00,
2013-07-31 21:34:00,71.2,67.5,30.02,East,90,0.0,0.0,88,0.00,,,0.05,WUHU21623XXSP,2013-08-01 01:34:00,
2013-07-31 21:39:00,71.1,67.3,30.02,East,90,0.0,0.0,88,0.00,,,0.05,WUHU21623XXSP,2013-08-01 01:39:00,
2013-07-31 21:44:00,71.1,67.3,30.02,East,90,0.0,0.0,88,0.00,,,0.05,WUHU21623XXSP,2013-08-01 01:44:00,
2013-07-31 21:49:00,70.9,67.1,30.02,ESE,112,0.0,0.0,88,0.00,,,0.05,WUHU21623XXSP,2013-08-01 01:49:00,
2013-07-31 21:54:00,70.9,67.1,30.02,East,90,0.0,0.0,88,0.00,,,0.05,WUHU21623XXSP,2013-08-01 01:54:00,
2013-07-31 21:59:00,70.9,67.1,30.02,ESE,112,0.0,0.0,88,0.00,,,0.05,WUHU21623XXSP,2013-08-01 01:59:00,
2013-07-31 22:04:00,70.9,67.1,30.02,ESE,112,0.0,0.0,88,0.00,,,0.05,WUHU21623XXSP,2013-08-01 02:04:00,
2013-07-31 22:09:00,70.7,67.0,30.02,ESE,112,0.0,0.0,88,0.00,,,0.05,WUHU21623XXSP,2013-08-01 02:09:00,
2013-07-31 22:14:00,70.7,67.0,30.02,East,90,0.0,0.0,88,0.00,,,0.05,WUHU21623XXSP,2013-08-01 02:14:00,
2013-07-31 22:19:00,70.7,67.0,30.02,East,90,0.0,0.0,88,0.00,,,0.05,WUHU21623XXSP,2013-08-01 02:19:00,
2013-07-31 22:24:00,70.7,67.0,30.02,South,180,0.0,0.0,88,0.00,,,0.05,WUHU21623XXSP,2013-08-01 02:24:00,
2013-07-31 22:29:00,70.7,67.0,30.02,ESE,112,0.0,0.0,88,0.00,,,0.05,WUHU21623XXSP,2013-08-01 02:29:00,
2013-07-31 22:34:00,70.5,66.8,30.02,ESE,112,0.0,0.0,88,0.00,,,0.05,WUHU21623XXSP,2013-08-01 02:34:00,
2013-07-31 22:39:00,70.5,66.8,30.02,South,180,0.0,0.0,88,0.00,,,0.05,WUHU21623XXSP,2013-08-01 02:39:00,
2013-07-31 22:44:00,70.7,67.0,30.03,East,90,0.0,0.0,88,0.00,,,0.05,WUHU21623XXSP,2013-08-01 02:44:00,
2013-07-31 22:49:00,70.7,67.0,30.02,East,90,0.0,0.0,88,0.00,,,0.05,WUHU21623XXSP,2013-08-01 02:49:00,
2013-07-31 22:54:00,70.9,67.1,30.02,East,90,0.0,0.0,88,0.00,,,0.05,WUHU21623XXSP,2013-08-01 02:54:00,
2013-07-31 22:59:00,70.9,67.1,30.02,NNE,22,0.0,0.0,88,0.00,,,0.05,WUHU21623XXSP,2013-08-01 02:59:00,
2013-07-31 23:04:00,70.9,67.1,30.02,NNE,22,0.0,0.0,88,0.00,,,0.05,WUHU21623XXSP,2013-08-01 03:04:00,
2013-07-31 23:09:00,70.7,67.0,30.02,North,0,0.0,0.0,88,0.00,,,0.05,WUHU21623XXSP,2013-08-01 03:09:00,
2013-07-31 23:14:00,70.7,67.0,30.02,ESE,112,0.0,0.0,88,0.00,,,0.05,WUHU21623XXSP,2013-08-01 03:14:00,
2013-07-31 23:19:00,70.9,66.8,30.02,NNE,22,0.0,0.0,87,0.00,,,0.05,WUHU21623XXSP,2013-08-01 03:19:00,
2013-07-31 23:24:00,70.9,66.8,30.03,NNE,22,0.0,0.0,87,0.00,,,0.05,WUHU21623XXSP,2013-08-01 03:24:00,
2013-07-31 23:29:00,70.9,66.8,30.02,NNE,22,0.0,0.0,87,0.00,,,0.05,WUHU21623XXSP,2013-08-01 03:29:00,
2013-07-31 23:34:00,70.9,66.8,30.02,ESE,112,0.0,0.0,87,0.00,,,0.05,WUHU21623XXSP,2013-08-01 03:34:00,
2013-07-31 23:39:00,70.9,66.8,30.02,North,0,0.0,0.0,87,0.00,,,0.05,WUHU21623XXSP,2013-08-01 03:39:00,
2013-07-31 23:44:00,70.9,66.8,30.02,North,0,0.0,0.0,87,0.00,,,0.05,WUHU21623XXSP,2013-08-01 03:44:00,
2013-07-31 23:49:00,70.9,66.8,30.02,East,90,0.0,0.0,87,0.00,,,0.05,WUHU21623XXSP,2013-08-01 03:49:00,
2013-07-31 23:54:00,71.1,67.0,30.01,South,180,0.0,0.0,87,0.00,,,0.05,WUHU21623XXSP,2013-08-01 03:54:00,
2013-07-31 23:59:00,70.9,66.8,30.02,North,0,0.0,0.0,87,0.00,,,0.05,WUHU21623XXSP,2013-08-01 03:59:00,